Time;durP1;ratioP1;P1;durP2;ratioP2;P2;SDS_P1;SDS_P2;PMS_P1;PMS_P2;Temp;Humidity;BMP_temperature;BMP_pressure;BME280_temperature;BME280_humidity;BME280_pressure;Samples;Min_cycle;Max_cycle;Signal;HPM_P1;HPM_P2
2023/03/29 00:00:40;;;;;;;0.47;0.47;;;;;;;8.39;66.50;101141.53;5052663;28;20037;-48
2023/03/29 00:03:06;;;;;;;3.40;0.40;;;;;;;8.35;66.87;101147.88;5047782;28;20086;-52
2023/03/29 00:05:33;;;;;;;0.55;0.50;;;;;;;8.37;66.35;101141.06;5043129;28;20035;-48
2023/03/29 00:08:02;;;;;;;0.70;0.38;;;;;;;8.38;66.53;101136.50;5039932;28;20029;-49
2023/03/29 00:10:32;;;;;;;0.95;0.77;;;;;;;8.44;66.49;101135.19;5038469;28;20037;-52
2023/03/29 00:12:58;;;;;;;0.35;0.35;;;;;;;8.34;66.92;101139.06;5052600;28;20056;-50
2023/03/29 00:15:23;;;;;;;0.38;0.38;;;;;;;8.23;67.96;101127.88;5041066;28;20037;-48
2023/03/29 00:17:49;;;;;;;0.40;0.40;;;;;;;8.42;67.89;101134.72;5043614;28;20060;-47
2023/03/29 00:20:15;;;;;;;0.40;0.40;;;;;;;8.41;68.38;101117.03;5038935;28;20060;-51
2023/03/29 00:22:42;;;;;;;2.00;0.50;;;;;;;8.49;67.72;101125.03;5043836;28;20032;-50
2023/03/29 00:25:09;;;;;;;0.88;0.88;;;;;;;8.56;68.08;101117.22;5049442;28;20037;-49
2023/03/29 00:27:35;;;;;;;0.65;0.65;;;;;;;8.55;67.50;101115.69;5030325;28;20096;-54
2023/03/29 00:30:04;;;;;;;3.63;0.57;;;;;;;8.43;68.84;101112.94;5046997;28;20462;-47
2023/03/29 00:32:30;;;;;;;0.73;0.60;;;;;;;8.49;69.62;101108.13;5046887;28;20517;-47
2023/03/29 00:34:56;;;;;;;0.90;0.50;;;;;;;8.57;69.36;101102.72;5044487;28;20036;-48
2023/03/29 00:37:25;;;;;;;0.40;0.40;;;;;;;8.49;69.54;101100.88;5036423;28;20482;-48
2023/03/29 00:39:52;;;;;;;1.02;0.60;;;;;;;8.48;69.35;101093.16;5038053;28;20115;-47
2023/03/29 00:42:18;;;;;;;2.38;0.52;;;;;;;8.36;69.40;101082.38;5047671;28;20511;-49
2023/03/29 00:45:00;;;;;;;2.83;0.75;;;;;;;8.15;71.70;101079.66;5044192;28;20024;-49
2023/03/29 00:47:42;;;;;;;;;;;;;;;8.25;72.08;101065.88;5050280;28;20036;-53
2023/03/29 00:50:31;;;;;;;0.45;0.45;;;;;;;8.22;73.09;101055.78;5046325;28;20342;-48
2023/03/29 00:53:08;;;;;;;0.75;0.50;;;;;;;8.08;73.78;101047.22;5050240;28;20040;-48
2023/03/29 00:55:38;;;;;;;0.68;0.68;;;;;;;8.20;73.71;101040.03;5049042;28;20484;-49
2023/03/29 00:58:08;;;;;;;0.60;0.60;;;;;;;8.31;73.36;101035.06;5047765;28;20024;-47
2023/03/29 01:00:40;;;;;;;2.53;0.60;;;;;;;8.27;73.96;101028.78;5041771;28;20435;-50
2023/03/29 01:03:13;;;;;;;0.40;0.40;;;;;;;8.23;73.99;101028.63;5042147;28;20037;-52
2023/03/29 01:05:47;;;;;;;0.50;0.50;;;;;;;8.28;73.84;101027.69;5049154;28;20081;-49
2023/03/29 01:08:24;;;;;;;0.50;0.50;;;;;;;8.18;75.22;101031.53;5048376;28;20021;-50
2023/03/29 01:11:04;;;;;;;0.50;0.50;;;;;;;8.15;75.61;101031.38;5035277;28;20059;-48
2023/03/29 01:13:38;;;;;;;0.80;0.60;;;;;;;8.20;74.91;101015.09;5048651;28;20036;-47
2023/03/29 01:16:08;;;;;;;0.55;0.50;;;;;;;8.07;76.08;101019.59;5051612;28;20033;-51
2023/03/29 01:18:33;;;;;;;1.05;0.63;;;;;;;7.97;76.72;101003.16;5057844;28;20033;-51
2023/03/29 01:21:23;;;;;;;0.30;0.30;;;;;;;7.92;77.48;101006.00;5046074;28;20205;-48
2023/03/29 01:24:10;;;;;;;0.57;0.57;;;;;;;7.91;77.39;100999.09;5038124;28;20487;-49
2023/03/29 01:26:52;;;;;;;0.90;0.52;;;;;;;7.81;77.11;100997.59;5046556;28;20663;-47
2023/03/29 01:29:24;;;;;;;;;;;;;;;7.88;77.20;100992.47;5050217;28;20052;-48
2023/03/29 01:31:51;;;;;;;;;;;;;;;7.83;76.85;100987.34;5047263;28;20003;-51
2023/03/29 01:34:26;;;;;;;0.40;0.40;;;;;;;7.83;77.35;100992.69;5044560;28;19987;-49
2023/03/29 01:37:03;;;;;;;0.63;0.60;;;;;;;7.75;76.50;100990.06;5043427;28;20094;-52
2023/03/29 01:39:30;;;;;;;0.90;0.70;;;;;;;7.77;76.50;100977.13;5049994;28;20163;-48
2023/03/29 01:42:11;;;;;;;0.40;0.40;;;;;;;7.82;73.83;100975.03;5046325;28;20119;-50
2023/03/29 01:44:52;;;;;;;0.80;0.65;;;;;;;7.75;73.53;100965.94;5045575;28;20579;-47
2023/03/29 01:47:20;;;;;;;0.98;0.45;;;;;;;7.57;74.08;100967.22;5050251;28;20021;-52
2023/03/29 01:49:58;;;;;;;0.57;0.57;;;;;;;7.66;73.42;100960.66;5041788;28;20498;-49
2023/03/29 01:52:31;;;;;;;0.63;0.60;;;;;;;7.55;73.03;100950.66;5048122;28;20462;-49
2023/03/29 01:55:11;;;;;;;1.58;0.38;;;;;;;7.65;72.56;100945.69;5048746;28;20446;-50
2023/03/29 01:57:43;;;;;;;0.32;0.32;;;;;;;7.55;72.75;100943.38;5049370;28;20045;-48
2023/03/29 02:00:23;;;;;;;0.55;0.55;;;;;;;7.61;72.33;100943.97;5044805;28;20071;-51
2023/03/29 02:02:54;;;;;;;0.20;0.20;;;;;;;7.54;72.05;100930.31;5043116;28;20057;-50
2023/03/29 02:05:23;;;;;;;0.55;0.55;;;;;;;7.45;73.03;100930.41;5042986;28;20040;-49
2023/03/29 02:07:50;;;;;;;0.82;0.57;;;;;;;7.42;73.37;100924.91;5046020;28;20032;-49
2023/03/29 02:10:17;;;;;;;0.35;0.35;;;;;;;7.53;72.90;100926.84;5045296;28;20036;-51
2023/03/29 02:12:42;;;;;;;0.70;0.52;;;;;;;7.49;72.36;100919.81;5063211;28;21203;-51
2023/03/29 02:15:14;;;;;;;0.50;0.50;;;;;;;7.46;71.86;100917.78;5038121;28;20065;-49
2023/03/29 02:17:42;;;;;;;1.45;0.63;;;;;;;7.42;72.72;100914.19;5042333;28;20037;-50
2023/03/29 02:20:16;;;;;;;0.40;0.40;;;;;;;7.33;71.24;100919.63;5047428;28;20032;-48
2023/03/29 02:22:54;;;;;;;0.40;0.40;;;;;;;7.41;72.16;100921.47;5049124;28;20102;-51
2023/03/29 02:25:21;;;;;;;0.40;0.40;;;;;;;7.34;71.14;100910.47;5030764;28;20060;-48
2023/03/29 02:27:47;;;;;;;0.43;0.43;;;;;;;7.16;71.30;100914.38;5030918;28;20035;-49
2023/03/29 02:30:16;;;;;;;0.60;0.60;;;;;;;6.98;72.18;100913.69;5034905;28;20373;-48
2023/03/29 02:32:42;;;;;;;0.30;0.30;;;;;;;7.14;71.52;100905.88;5047502;28;20029;-50
2023/03/29 02:35:15;;;;;;;1.17;0.40;;;;;;;7.07;72.01;100898.34;5039045;28;20095;-53
2023/03/29 02:37:45;;;;;;;0.60;0.60;;;;;;;7.13;71.43;100906.97;5045297;28;20104;-48
2023/03/29 02:40:13;;;;;;;0.32;0.32;;;;;;;7.01;71.81;100907.69;5047259;28;20135;-48
2023/03/29 02:42:42;;;;;;;0.38;0.38;;;;;;;7.12;72.16;100908.88;5033320;28;20099;-51
2023/03/29 02:45:11;;;;;;;0.45;0.45;;;;;;;7.04;72.32;100900.91;5046812;28;20021;-52
2023/03/29 02:47:43;;;;;;;0.63;0.60;;;;;;;7.12;71.37;100892.81;5044953;28;20438;-52
2023/03/29 02:50:09;;;;;;;5.57;0.85;;;;;;;7.16;71.20;100899.06;5029354;28;20391;-50
2023/03/29 02:52:39;;;;;;;0.50;0.50;;;;;;;7.20;71.47;100891.19;5034222;28;20016;-53
2023/03/29 02:55:15;;;;;;;0.50;0.40;;;;;;;7.29;70.33;100887.34;5046388;28;20029;-52
2023/03/29 02:57:42;;;;;;;0.47;0.47;;;;;;;7.28;70.20;100890.34;5047044;28;20043;-53
2023/03/29 03:00:09;;;;;;;0.50;0.50;;;;;;;7.47;69.14;100879.16;5033362;28;20578;-51
2023/03/29 03:02:36;;;;;;;0.82;0.60;;;;;;;7.13;69.21;100880.22;5046536;28;20121;-48
2023/03/29 03:05:04;;;;;;;4.20;0.60;;;;;;;7.05;70.34;100873.00;5046471;28;20534;-51
2023/03/29 03:07:30;;;;;;;0.60;0.60;;;;;;;7.23;70.26;100871.78;5047268;28;20029;-53
2023/03/29 03:09:56;;;;;;;0.32;0.32;;;;;;;7.19;69.89;100860.94;5042936;28;20056;-48
2023/03/29 03:12:22;;;;;;;0.98;0.45;;;;;;;7.30;69.88;100864.00;5038931;28;20036;-47
2023/03/29 03:14:48;;;;;;;1.10;0.93;;;;;;;7.32;69.09;100861.03;5044623;28;20029;-50
2023/03/29 03:17:13;;;;;;;0.85;0.50;;;;;;;7.14;69.73;100855.00;5041847;28;20032;-53
2023/03/29 03:19:39;;;;;;;2.00;0.40;;;;;;;7.06;69.48;100853.97;5044305;28;20036;-52
2023/03/29 03:22:06;;;;;;;0.55;0.45;;;;;;;6.96;70.41;100840.97;5051787;28;20193;-49
2023/03/29 03:24:32;;;;;;;0.30;0.30;;;;;;;7.08;69.03;100841.00;5048763;28;20036;-48
2023/03/29 03:26:58;;;;;;;0.65;0.50;;;;;;;7.16;69.50;100842.84;5041848;28;20067;-50
2023/03/29 03:29:24;;;;;;;0.60;0.60;;;;;;;7.01;68.40;100846.09;5050205;28;20067;-47
2023/03/29 03:31:56;;;;;;;0.50;0.50;;;;;;;7.03;70.03;100845.78;5046569;28;20060;-48
2023/03/29 03:34:42;;;;;;;0.98;0.60;;;;;;;7.02;69.75;100839.66;5034332;28;20538;-50
2023/03/29 03:37:10;;;;;;;10.88;0.43;;;;;;;6.85;69.85;100837.09;5047311;28;20069;-47
2023/03/29 03:39:36;;;;;;;0.52;0.52;;;;;;;7.05;69.55;100835.53;5044309;28;20028;-52
2023/03/29 03:42:03;;;;;;;0.50;0.50;;;;;;;6.96;70.00;100838.28;5043657;28;20025;-51
2023/03/29 03:44:29;;;;;;;0.55;0.55;;;;;;;6.90;69.77;100836.91;5050894;28;20025;-48
2023/03/29 03:47:15;;;;;;;1.27;0.68;;;;;;;6.95;70.57;100844.72;5043800;28;20052;-48
2023/03/29 03:49:41;;;;;;;0.30;0.30;;;;;;;6.84;70.56;100834.72;5035487;28;20063;-48
2023/03/29 03:52:07;;;;;;;1.77;0.57;;;;;;;6.84;69.45;100832.84;5050314;28;20095;-48
2023/03/29 03:54:33;;;;;;;1.00;0.60;;;;;;;6.71;71.41;100825.84;5051235;28;20028;-48
2023/03/29 03:57:17;;;;;;;0.75;0.75;;;;;;;6.91;70.97;100835.03;5029898;28;20136;-48
2023/03/29 03:59:48;;;;;;;0.75;0.70;;;;;;;7.06;69.71;100829.88;5032774;28;20095;-46
2023/03/29 04:02:19;;;;;;;0.60;0.50;;;;;;;7.02;70.07;100817.44;5032590;28;20034;-48
2023/03/29 04:04:46;;;;;;;0.50;0.50;;;;;;;7.04;69.08;100816.03;5043415;28;20189;-48
2023/03/29 04:07:16;;;;;;;0.22;0.22;;;;;;;6.85;70.41;100818.34;5036916;28;20013;-48
2023/03/29 04:09:54;;;;;;;0.43;0.43;;;;;;;7.00;70.36;100811.66;5038867;28;20076;-48
2023/03/29 04:12:39;;;;;;;0.70;0.70;;;;;;;6.92;71.16;100807.13;5042496;28;20458;-51
2023/03/29 04:15:07;;;;;;;0.50;0.50;;;;;;;6.51;72.25;100810.53;5042881;28;20029;-49
2023/03/29 04:17:33;;;;;;;0.75;0.70;;;;;;;6.78;72.32;100819.97;5044116;28;20045;-45
2023/03/29 04:20:12;;;;;;;1.98;0.82;;;;;;;7.01;71.06;100821.22;5039705;28;20037;-47
2023/03/29 04:22:40;;;;;;;1.58;1.00;;;;;;;7.08;70.22;100827.63;5042362;28;20037;-46
2023/03/29 04:25:07;;;;;;;0.90;0.88;;;;;;;7.15;70.17;100819.06;5036107;28;20498;-51
2023/03/29 04:27:39;;;;;;;11.93;0.77;;;;;;;7.18;70.04;100826.47;5040497;28;20560;-47
2023/03/29 04:30:15;;;;;;;0.30;0.30;;;;;;;7.18;70.16;100819.19;5058461;28;20078;-53
2023/03/29 04:33:07;;;;;;;0.38;0.38;;;;;;;7.38;69.63;100814.94;5037853;28;20041;-46
2023/03/29 04:35:34;;;;;;;0.80;0.55;;;;;;;7.11;70.65;100821.63;5048956;28;20037;-53
2023/03/29 04:38:00;;;;;;;0.50;0.50;;;;;;;7.11;71.33;100816.28;5060820;28;20223;-50
2023/03/29 04:40:27;;;;;;;0.65;0.45;;;;;;;7.06;70.58;100819.16;5046140;28;20412;-53
2023/03/29 04:43:07;;;;;;;0.60;0.60;;;;;;;7.02;71.05;100812.91;5041851;28;20033;-49
2023/03/29 04:45:33;;;;;;;0.50;0.50;;;;;;;7.08;70.54;100808.13;5050032;28;20033;-52
2023/03/29 04:48:10;;;;;;;1.02;0.80;;;;;;;7.16;70.37;100805.34;5032897;28;20450;-51
2023/03/29 04:50:39;;;;;;;0.80;0.50;;;;;;;7.23;69.77;100797.59;5039326;28;20025;-56
2023/03/29 04:53:06;;;;;;;0.68;0.68;;;;;;;7.17;70.06;100801.59;5041196;28;20040;-50
2023/03/29 04:55:32;;;;;;;0.52;0.52;;;;;;;7.16;70.64;100802.69;5035511;28;20021;-48
2023/03/29 04:58:02;;;;;;;1.13;0.40;;;;;;;7.19;70.61;100806.59;5041273;28;20021;-50
2023/03/29 05:00:35;;;;;;;1.88;1.20;;;;;;;7.09;71.01;100794.41;5044985;28;20234;-48
2023/03/29 05:03:20;;;;;;;0.55;0.52;;;;;;;7.13;71.09;100787.28;5043390;28;20106;-48
2023/03/29 05:06:05;;;;;;;2.92;1.10;;;;;;;7.11;71.78;100792.19;5034227;28;20106;-51
2023/03/29 05:08:33;;;;;;;2.15;0.57;;;;;;;7.23;71.21;100802.16;5028681;28;20040;-45
2023/03/29 05:11:08;;;;;;;0.60;0.60;;;;;;;7.29;70.93;100796.28;5042073;28;20486;-49
2023/03/29 05:13:34;;;;;;;1.17;0.77;;;;;;;7.44;70.51;100812.84;5029719;28;20750;-46
2023/03/29 05:16:00;;;;;;;0.88;0.88;;;;;;;7.37;70.11;100793.84;5030169;28;20790;-46
2023/03/29 05:18:27;;;;;;;1.17;0.90;;;;;;;7.20;70.88;100790.19;5038484;28;20087;-50
2023/03/29 05:20:53;;;;;;;0.98;0.85;;;;;;;7.29;71.33;100780.22;5042506;28;20165;-46
2023/03/29 05:23:20;;;;;;;1.83;0.70;;;;;;;7.24;71.50;100791.13;5038132;28;20028;-48
2023/03/29 05:26:17;;;;;;;0.95;0.73;;;;;;;7.16;71.73;100788.53;5021886;28;20033;-54
2023/03/29 05:28:49;;;;;;;1.35;0.98;;;;;;;7.32;71.16;100790.25;5041521;28;20036;-47
2023/03/29 05:31:16;;;;;;;1.48;1.00;;;;;;;7.30;71.34;100795.16;5043707;28;20433;-58
2023/03/29 05:33:42;;;;;;;4.43;1.15;;;;;;;7.26;71.86;100796.94;5039106;28;20066;-47
2023/03/29 05:36:13;;;;;;;0.63;0.60;;;;;;;7.21;72.45;100783.75;5053656;28;20039;-48
2023/03/29 05:38:45;;;;;;;0.65;0.65;;;;;;;7.07;73.25;100791.25;5032263;28;20025;-47
2023/03/29 05:41:13;;;;;;;0.77;0.77;;;;;;;6.99;74.19;100778.72;5033676;28;20037;-51
2023/03/29 05:43:56;;;;;;;0.95;0.95;;;;;;;7.00;73.85;100772.28;5033163;28;20032;-54
2023/03/29 05:46:27;;;;;;;0.65;0.65;;;;;;;7.15;73.80;100777.03;5039595;28;20123;-50
2023/03/29 05:48:55;;;;;;;;;;;;;;;7.15;73.61;100782.38;5039936;28;20025;-54
2023/03/29 05:51:32;;;;;;;1.90;1.20;;;;;;;7.30;73.79;100767.59;5031198;28;19920;-53
2023/03/29 05:53:58;;;;;;;1.55;1.05;;;;;;;7.25;73.89;100757.09;5033525;28;20033;-48
2023/03/29 05:56:25;;;;;;;1.77;0.95;;;;;;;6.99;74.95;100761.88;5032486;28;20464;-49
2023/03/29 05:58:55;;;;;;;1.42;0.90;;;;;;;7.14;75.27;100759.38;5041492;28;20041;-47
2023/03/29 06:01:23;;;;;;;3.35;1.00;;;;;;;7.22;73.90;100765.75;5036695;28;20029;-56
2023/03/29 06:03:57;;;;;;;3.45;1.00;;;;;;;6.93;74.99;100753.25;5043168;28;20040;-49
2023/03/29 06:06:29;;;;;;;1.17;0.80;;;;;;;7.15;74.90;100755.59;5043674;28;20082;-44
2023/03/29 06:08:54;;;;;;;4.40;0.85;;;;;;;7.25;75.04;100751.72;5045996;28;20029;-53
2023/03/29 06:11:31;;;;;;;3.70;1.15;;;;;;;7.23;75.18;100753.97;5046661;28;20036;-48
2023/03/29 06:14:09;;;;;;;1.58;1.00;;;;;;;7.29;74.76;100749.97;5046426;28;20041;-47
2023/03/29 06:16:42;;;;;;;0.77;0.77;;;;;;;7.37;74.14;100759.81;5038834;28;20384;-49
2023/03/29 06:19:08;;;;;;;0.57;0.57;;;;;;;7.23;75.41;100757.44;5045066;28;20132;-45
2023/03/29 06:21:36;;;;;;;4.88;0.65;;;;;;;7.30;75.96;100754.19;5049090;28;20036;-50
2023/03/29 06:24:02;;;;;;;3.30;1.13;;;;;;;7.36;74.84;100763.59;5043291;28;20408;-47
2023/03/29 06:26:35;;;;;;;1.25;1.02;;;;;;;7.23;76.35;100754.75;5055213;28;20060;-55
2023/03/29 06:29:03;;;;;;;1.67;1.00;;;;;;;7.47;75.45;100763.97;5034932;28;20040;-50
2023/03/29 06:31:30;;;;;;;3.50;1.10;;;;;;;7.34;75.78;100765.81;5035795;28;20551;-53
2023/03/29 06:33:57;;;;;;;3.17;1.58;;;;;;;7.34;76.63;100768.50;5036244;28;20064;-56
2023/03/29 06:36:49;;;;;;;2.35;1.35;;;;;;;7.62;75.64;100764.13;5041303;28;20384;-46
2023/03/29 06:39:18;;;;;;;2.05;1.13;;;;;;;7.54;75.77;100764.22;5047124;28;20122;-49
2023/03/29 06:42:21;;;;;;;1.10;0.98;;;;;;;7.52;75.95;100771.78;5007615;28;20124;-47
2023/03/29 06:45:03;;;;;;;0.82;0.77;;;;;;;7.34;76.76;100765.06;5041855;28;20117;-48
2023/03/29 06:47:30;;;;;;;1.58;1.23;;;;;;;7.17;78.31;100780.16;5035447;28;20036;-53
2023/03/29 06:49:56;;;;;;;2.58;1.35;;;;;;;7.34;77.63;100770.41;5019088;28;20065;-56
2023/03/29 06:52:28;;;;;;;1.95;1.17;;;;;;;7.42;78.22;100758.81;5042463;28;20040;-52
2023/03/29 06:54:55;;;;;;;1.38;1.00;;;;;;;7.54;77.62;100766.88;5040866;28;20028;-54
2023/03/29 06:57:24;;;;;;;1.50;0.80;;;;;;;7.78;76.35;100775.00;5045137;28;20033;-54
2023/03/29 06:59:49;;;;;;;2.33;0.70;;;;;;;7.74;77.18;100774.84;5043188;28;20057;-46
2023/03/29 07:02:21;;;;;;;1.08;0.75;;;;;;;7.68;77.32;100767.38;5028430;28;20321;-49
2023/03/29 07:04:53;;;;;;;2.40;1.08;;;;;;;7.73;77.48;100761.78;5038576;28;20037;-49
2023/03/29 07:07:55;;;;;;;5.30;0.90;;;;;;;7.79;78.03;100755.09;5040247;28;20033;-48
2023/03/29 07:10:36;;;;;;;0.60;0.60;;;;;;;7.65;78.73;100770.69;5042417;28;20043;-46
2023/03/29 07:13:26;;;;;;;1.15;1.15;;;;;;;7.80;79.20;100762.81;5017113;28;20044;-47
2023/03/29 07:15:53;;;;;;;1.58;0.98;;;;;;;7.84;79.08;100766.38;5044985;28;20434;-50
2023/03/29 07:18:41;;;;;;;1.42;0.82;;;;;;;7.87;78.97;100772.97;5024418;28;20052;-52
2023/03/29 07:21:11;;;;;;;1.15;0.80;;;;;;;7.83;79.09;100772.09;5042972;28;20033;-47
2023/03/29 07:23:37;;;;;;;1.00;0.93;;;;;;;7.85;78.92;100769.84;5038716;28;20037;-55
2023/03/29 07:26:06;;;;;;;1.33;0.88;;;;;;;7.91;79.21;100768.53;5050351;28;20060;-50
2023/03/29 07:28:33;;;;;;;2.22;0.82;;;;;;;8.00;78.99;100764.63;5021659;28;20084;-54
2023/03/29 07:31:06;;;;;;;1.55;0.77;;;;;;;8.07;78.70;100761.41;5040554;28;20111;-47
2023/03/29 07:33:34;;;;;;;2.45;1.13;;;;;;;8.25;78.60;100765.44;5037399;28;20127;-46
2023/03/29 07:36:04;;;;;;;1.13;0.68;;;;;;;8.17;78.19;100761.72;5042411;28;20029;-48
2023/03/29 07:38:31;;;;;;;1.17;0.90;;;;;;;8.20;78.17;100763.75;5042333;28;20033;-52
2023/03/29 07:41:03;;;;;;;0.55;0.52;;;;;;;8.24;77.85;100758.47;5038498;28;20033;-48
2023/03/29 07:43:38;;;;;;;1.50;1.17;;;;;;;8.23;77.84;100759.59;5032642;28;20033;-48
2023/03/29 07:46:05;;;;;;;1.20;0.90;;;;;;;8.51;77.44;100749.78;5036389;28;20029;-46
2023/03/29 07:48:35;;;;;;;1.27;0.88;;;;;;;8.45;77.58;100753.00;5037884;28;20021;-49
2023/03/29 07:51:05;;;;;;;0.63;0.63;;;;;;;8.15;79.07;100752.44;5037902;28;20044;-46
2023/03/29 07:53:51;;;;;;;1.02;0.75;;;;;;;8.36;78.54;100758.50;5035304;28;20053;-50
2023/03/29 07:56:49;;;;;;;0.57;0.57;;;;;;;8.48;77.59;100750.44;5027458;28;20547;-57
2023/03/29 07:59:15;;;;;;;1.48;0.60;;;;;;;8.58;77.03;100747.28;5033419;28;20038;-48
2023/03/29 08:01:44;;;;;;;3.70;1.08;;;;;;;8.62;77.12;100740.13;5049310;28;20372;-52
2023/03/29 08:04:48;;;;;;;0.32;0.32;;;;;;;8.54;78.16;100746.41;5039355;28;20430;-48
2023/03/29 08:07:18;;;;;;;2.38;0.98;;;;;;;8.70;77.58;100747.25;5040842;28;20087;-47
2023/03/29 08:10:06;;;;;;;0.57;0.55;;;;;;;8.95;76.99;100751.44;5039073;28;20033;-52
2023/03/29 08:12:52;;;;;;;0.80;0.68;;;;;;;8.94;77.78;100744.50;5028475;28;20663;-48
2023/03/29 08:15:20;;;;;;;0.25;0.25;;;;;;;9.15;76.57;100744.31;5030006;28;20037;-51
2023/03/29 08:17:46;;;;;;;0.77;0.60;;;;;;;9.27;76.50;100743.47;5040725;28;20091;-47
2023/03/29 08:20:15;;;;;;;0.85;0.77;;;;;;;9.07;75.57;100746.03;5045135;28;20056;-50
2023/03/29 08:22:43;;;;;;;1.65;0.98;;;;;;;9.02;75.97;100746.25;5043813;28;20391;-47
2023/03/29 08:25:10;;;;;;;0.50;0.50;;;;;;;9.07;75.80;100742.56;5037966;28;20053;-57
2023/03/29 08:27:42;;;;;;;2.80;1.10;;;;;;;9.24;75.05;100738.78;5038159;28;20067;-47
2023/03/29 08:30:09;;;;;;;0.77;0.50;;;;;;;9.19;75.98;100744.41;5044621;28;20086;-53
2023/03/29 08:32:37;;;;;;;1.23;1.00;;;;;;;9.14;76.21;100739.28;5058811;28;20487;-47
2023/03/29 08:35:07;;;;;;;0.73;0.60;;;;;;;9.18;76.03;100737.47;5044732;28;20033;-55
2023/03/29 08:37:37;;;;;;;0.50;0.50;;;;;;;8.94;76.87;100736.44;5049278;28;20025;-55
2023/03/29 08:40:05;;;;;;;5.88;1.00;;;;;;;9.04;77.55;100741.31;5045457;28;20063;-50
2023/03/29 08:43:00;;;;;;;1.02;0.90;;;;;;;9.13;77.39;100735.81;5039727;28;20043;-53
2023/03/29 08:45:55;;;;;;;1.00;0.90;;;;;;;9.46;76.23;100733.63;5045162;28;20419;-52
2023/03/29 08:48:40;;;;;;;2.25;0.75;;;;;;;9.65;75.22;100738.34;5029977;28;20021;-51
2023/03/29 08:51:20;;;;;;;1.13;0.70;;;;;;;9.23;76.37;100732.66;5063712;28;20037;-51
2023/03/29 08:53:59;;;;;;;1.25;0.95;;;;;;;9.49;75.51;100730.25;5064133;28;20037;-50
2023/03/29 08:56:34;;;;;;;2.70;1.00;;;;;;;9.31;76.10;100720.19;5044569;28;20053;-51
2023/03/29 08:59:25;;;;;;;3.63;1.08;;;;;;;9.45;76.34;100715.94;5049886;28;20044;-51
2023/03/29 09:01:56;;;;;;;0.88;0.57;;;;;;;9.65;74.51;100720.31;5050692;28;20025;-52
2023/03/29 09:04:31;;;;;;;0.80;0.68;;;;;;;9.81;74.47;100731.81;5051331;28;20029;-51
2023/03/29 09:07:26;;;;;;;2.10;0.80;;;;;;;9.86;75.01;100731.56;5047263;28;20033;-51
2023/03/29 09:09:53;;;;;;;0.77;0.77;;;;;;;9.70;74.46;100721.94;5048134;28;20131;-52
2023/03/29 09:12:48;;;;;;;0.65;0.65;;;;;;;9.86;74.64;100720.03;5051449;28;21025;-53
2023/03/29 09:15:48;;;;;;;3.13;0.70;;;;;;;9.83;74.04;100721.50;5041950;28;20516;-54
2023/03/29 09:19:00;;;;;;;0.45;0.45;;;;;;;9.81;74.20;100721.06;5043001;28;20128;-49
2023/03/29 09:21:33;;;;;;;2.75;0.90;;;;;;;9.70;74.22;100714.66;5057269;28;20040;-51
2023/03/29 09:24:20;;;;;;;0.63;0.43;;;;;;;10.01;74.02;100719.22;5049491;28;20039;-51
2023/03/29 09:27:02;;;;;;;1.45;0.82;;;;;;;10.23;72.35;100723.22;5044586;28;20147;-51
2023/03/29 09:30:00;;;;;;;1.42;0.82;;;;;;;10.40;71.60;100715.56;5054195;28;20107;-50
2023/03/29 09:33:07;;;;;;;0.57;0.57;;;;;;;10.37;72.24;100708.19;5010079;28;20106;-50
2023/03/29 09:35:53;;;;;;;1.70;1.17;;;;;;;10.33;72.04;100710.03;5063978;28;20031;-52
2023/03/29 09:38:21;;;;;;;1.23;1.00;;;;;;;10.35;72.55;100713.16;5051986;28;20033;-56
2023/03/29 09:40:52;;;;;;;1.08;0.98;;;;;;;10.53;72.70;100711.59;5048942;28;20021;-53
2023/03/29 09:43:41;;;;;;;2.65;1.08;;;;;;;10.76;71.06;100703.63;5043934;28;20127;-50
2023/03/29 09:46:40;;;;;;;2.05;0.80;;;;;;;10.67;70.42;100714.59;5048105;28;20072;-51
2023/03/29 09:49:16;;;;;;;1.20;1.02;;;;;;;10.72;71.05;100708.91;5037571;28;20124;-52
2023/03/29 09:51:46;;;;;;;1.70;0.93;;;;;;;10.56;70.76;100699.34;5050001;28;20029;-51
2023/03/29 09:54:12;;;;;;;0.68;0.68;;;;;;;10.46;71.67;100705.28;5048452;28;20040;-51
2023/03/29 09:57:14;;;;;;;1.48;0.55;;;;;;;10.46;71.86;100694.50;5010209;28;20458;-52
2023/03/29 09:59:39;;;;;;;0.70;0.70;;;;;;;10.53;72.88;100692.75;5044128;28;20064;-54
2023/03/29 10:02:12;;;;;;;0.52;0.52;;;;;;;10.74;71.00;100681.66;5058008;28;20033;-49
2023/03/29 10:04:40;;;;;;;1.40;0.75;;;;;;;10.77;71.81;100676.31;5050221;28;20567;-49
2023/03/29 10:07:07;;;;;;;0.93;0.80;;;;;;;11.05;71.13;100669.91;5043147;28;20032;-50
2023/03/29 10:09:34;;;;;;;1.17;0.60;;;;;;;11.12;71.10;100670.81;5042886;28;20515;-53
2023/03/29 10:12:15;;;;;;;0.60;0.35;;;;;;;11.31;69.73;100668.09;5049145;28;20063;-49
2023/03/29 10:14:47;;;;;;;0.93;0.65;;;;;;;11.42;68.23;100669.03;5040685;28;20029;-48
2023/03/29 10:17:20;;;;;;;1.15;0.52;;;;;;;11.59;67.97;100663.16;5039593;28;20060;-51
2023/03/29 10:19:49;;;;;;;1.02;0.85;;;;;;;11.68;68.46;100671.03;5040354;28;20549;-52
2023/03/29 10:22:25;;;;;;;0.52;0.52;;;;;;;11.84;68.31;100668.22;5048848;28;20037;-51
2023/03/29 10:24:56;;;;;;;0.70;0.60;;;;;;;12.11;67.51;100669.78;5044590;28;20029;-46
2023/03/29 10:27:25;;;;;;;0.43;0.40;;;;;;;12.29;67.44;100668.09;5038666;28;20040;-47
2023/03/29 10:29:53;;;;;;;0.40;0.40;;;;;;;12.29;66.92;100668.09;5037667;28;20032;-49
2023/03/29 10:32:32;;;;;;;1.15;0.80;;;;;;;12.31;67.04;100665.81;5037833;28;20180;-53
2023/03/29 10:35:17;;;;;;;1.88;0.57;;;;;;;12.48;66.37;100671.44;5043578;28;20042;-51
2023/03/29 10:37:47;;;;;;;0.80;0.60;;;;;;;12.62;65.38;100668.13;5050932;28;20041;-48
2023/03/29 10:40:25;;;;;;;0.93;0.77;;;;;;;12.69;64.36;100669.00;5040247;28;20163;-54
2023/03/29 10:42:52;;;;;;;0.95;0.60;;;;;;;12.68;63.67;100663.94;5048257;28;20077;-52
2023/03/29 10:45:24;;;;;;;1.33;0.65;;;;;;;12.63;63.60;100667.78;5039853;28;20025;-47
2023/03/29 10:47:49;;;;;;;;;;;;;;;12.13;66.81;100662.88;5041279;28;20048;-56
2023/03/29 10:50:15;;;;;;;1.17;0.77;;;;;;;12.32;65.85;100665.44;5049379;28;19913;-52
2023/03/29 10:52:41;;;;;;;0.50;0.50;;;;;;;12.27;65.35;100657.66;5047713;28;20032;-51
2023/03/29 10:55:12;;;;;;;2.05;0.63;;;;;;;11.92;66.61;100653.69;5042118;28;20052;-52
2023/03/29 10:58:27;;;;;;;0.80;0.73;;;;;;;12.05;67.80;100663.13;5032511;28;20034;-59
2023/03/29 11:00:57;;;;;;;1.67;0.80;;;;;;;12.14;67.48;100671.72;5016580;28;20064;-50
2023/03/29 11:03:53;;;;;;;1.27;0.68;;;;;;;11.94;68.79;100679.19;5020084;28;20025;-51
2023/03/29 11:06:39;;;;;;;0.90;0.82;;;;;;;12.03;69.60;100674.28;5022481;28;20047;-49
2023/03/29 11:09:29;;;;;;;1.38;0.63;;;;;;;12.03;70.45;100652.69;5019855;28;20491;-55
2023/03/29 11:12:08;;;;;;;0.95;0.75;;;;;;;12.36;69.78;100658.16;4998371;28;20053;-53
2023/03/29 11:15:13;;;;;;;1.25;0.75;;;;;;;12.41;69.66;100655.13;5004379;28;20033;-47
2023/03/29 11:18:16;;;;;;;0.47;0.47;;;;;;;12.72;67.38;100645.09;5019138;28;20511;-53
2023/03/29 11:20:54;;;;;;;1.13;1.00;;;;;;;12.80;66.90;100644.00;5021758;28;20026;-52
2023/03/29 11:23:31;;;;;;;1.27;1.08;;;;;;;12.89;66.25;100634.47;5010347;28;20037;-53
2023/03/29 11:26:31;;;;;;;0.57;0.57;;;;;;;12.81;66.90;100637.47;5003798;28;20188;-52
2023/03/29 11:29:10;;;;;;;0.52;0.52;;;;;;;12.92;67.50;100638.34;5020423;28;20281;-51
2023/03/29 11:32:02;;;;;;;2.17;0.77;;;;;;;12.97;67.91;100633.38;5027503;28;20049;-50
2023/03/29 11:34:36;;;;;;;2.40;1.15;;;;;;;12.86;67.91;100637.91;5024126;28;20526;-55
2023/03/29 11:37:27;;;;;;;2.20;0.60;;;;;;;12.86;68.54;100639.84;5039432;28;20033;-53
2023/03/29 11:40:04;;;;;;;;;;;;;;;12.97;68.29;100644.19;5043897;28;20033;-54
2023/03/29 11:42:33;;;;;;;1.40;0.63;;;;;;;12.90;66.80;100637.94;5040158;28;20016;-51
2023/03/29 11:45:05;;;;;;;0.70;0.70;;;;;;;12.84;67.72;100644.81;5050065;28;20036;-51
2023/03/29 11:47:35;;;;;;;0.68;0.68;;;;;;;12.75;67.88;100638.94;5048789;28;20622;-54
2023/03/29 11:50:20;;;;;;;1.08;0.77;;;;;;;12.74;67.97;100640.09;5013289;28;20075;-50
2023/03/29 11:52:54;;;;;;;1.17;0.65;;;;;;;12.59;69.74;100648.03;5039822;28;20044;-51
2023/03/29 11:55:30;;;;;;;1.30;0.57;;;;;;;12.66;69.47;100656.22;5034286;28;20399;-52
2023/03/29 11:58:04;;;;;;;0.60;0.60;;;;;;;12.67;70.33;100646.97;5038118;28;20494;-50
2023/03/29 12:00:36;;;;;;;1.42;0.80;;;;;;;12.37;72.32;100642.72;5039867;28;20033;-50
2023/03/29 12:03:43;;;;;;;0.55;0.52;;;;;;;12.14;73.62;100650.91;5040540;28;20070;-50
2023/03/29 12:06:11;;;;;;;2.75;1.10;;;;;;;12.37;72.29;100648.13;5033780;28;20552;-51